Time;durP1;ratioP1;P1;durP2;ratioP2;P2;SDS_P1;SDS_P2;PMS_P1;PMS_P2;Temp;Humidity;BMP_temperature;BMP_pressure;BME280_temperature;BME280_humidity;BME280_pressure;Samples;Min_cycle;Max_cycle;Signal;HPM_P1;HPM_P2
2022/03/26 00:00:08;;;;;;;7.65;6.80;;;;;;;;;;5020760;28;20048;-63
2022/03/26 00:02:34;;;;;;;13.75;6.53;;;;;;;;;;5018675;28;20407;-63
2022/03/26 00:05:00;;;;;;;9.07;6.13;;;;;;;;;;5017507;28;20029;-63
2022/03/26 00:07:27;;;;;;;6.65;5.88;;;;;;;;;;5020017;28;20060;-63
2022/03/26 00:09:52;;;;;;;7.93;5.88;;;;;;;;;;5016251;28;20034;-63
2022/03/26 00:12:19;;;;;;;8.07;6.18;;;;;;;;;;5020917;28;20032;-63
2022/03/26 00:14:44;;;;;;;8.55;5.78;;;;;;;;;;5018752;28;20021;-63
2022/03/26 00:17:10;;;;;;;10.20;6.07;;;;;;;;;;5017350;28;20032;-63
2022/03/26 00:19:36;;;;;;;12.93;6.07;;;;;;;;;;5019983;28;20064;-63
2022/03/26 00:22:02;;;;;;;12.15;6.32;;;;;;;;;;5014136;28;20026;-63
2022/03/26 00:24:28;;;;;;;7.47;5.72;;;;;;;;;;5020281;28;20034;-63
2022/03/26 00:26:54;;;;;;;8.93;5.90;;;;;;;;;;5017919;28;20032;-63
2022/03/26 00:29:19;;;;;;;6.53;5.88;;;;;;;;;;5016707;28;20148;-63
2022/03/26 00:31:46;;;;;;;7.88;6.03;;;;;;;;;;5027016;28;20025;-63
2022/03/26 00:34:12;;;;;;;7.97;6.32;;;;;;;;;;5018812;28;20402;-63
2022/03/26 00:36:38;;;;;;;14.80;6.20;;;;;;;;;;5019151;28;20485;-63
2022/03/26 00:39:04;;;;;;;9.63;6.38;;;;;;;;;;5016055;28;20108;-63
2022/03/26 00:41:30;;;;;;;8.10;6.70;;;;;;;;;;5016570;28;20039;-63
2022/03/26 00:43:56;;;;;;;8.57;6.30;;;;;;;;;;5018869;28;20100;-63
2022/03/26 00:46:22;;;;;;;6.50;5.50;;;;;;;;;;5021745;28;20042;-63
2022/03/26 00:48:48;;;;;;;11.70;6.28;;;;;;;;;;5013651;28;20028;-63
2022/03/26 00:51:15;;;;;;;9.30;5.93;;;;;;;;;;5013592;28;20034;-63
2022/03/26 00:53:45;;;;;;;6.93;6.20;;;;;;;;;;5047836;28;20046;-63
2022/03/26 00:56:12;;;;;;;10.50;7.20;;;;;;;;;;5018371;28;20674;-63
2022/03/26 00:58:39;;;;;;;11.25;6.55;;;;;;;;;;5014034;28;20076;-63
2022/03/26 01:01:04;;;;;;;11.30;6.15;;;;;;;;;;5018638;28;20033;-63
2022/03/26 01:03:30;;;;;;;9.45;5.85;;;;;;;;;;5014536;28;20091;-63
2022/03/26 01:05:56;;;;;;;8.10;5.78;;;;;;;;;;5015007;28;20393;-63
2022/03/26 01:08:22;;;;;;;8.48;5.97;;;;;;;;;;5012379;28;20048;-64
2022/03/26 01:10:47;;;;;;;9.18;6.20;;;;;;;;;;5021378;28;20037;-63
2022/03/26 01:13:14;;;;;;;9.00;6.93;;;;;;;;;;5016094;28;20029;-63
2022/03/26 01:15:40;;;;;;;8.68;6.40;;;;;;;;;;5016559;28;20029;-63
2022/03/26 01:18:06;;;;;;;10.20;6.07;;;;;;;;;;5010854;28;20051;-62
2022/03/26 01:20:32;;;;;;;8.25;5.82;;;;;;;;;;5018237;28;20034;-63
2022/03/26 01:22:58;;;;;;;12.65;6.15;;;;;;;;;;5020681;28;20037;-63
2022/03/26 01:25:24;;;;;;;8.15;5.70;;;;;;;;;;5022058;28;20429;-63
2022/03/26 01:27:51;;;;;;;9.60;6.28;;;;;;;;;;5016488;28;20081;-63
2022/03/26 01:30:17;;;;;;;9.63;6.18;;;;;;;;;;5017805;28;20036;-63
2022/03/26 01:32:44;;;;;;;8.05;5.68;;;;;;;;;;5013964;28;20049;-63
2022/03/26 01:35:11;;;;;;;10.27;6.35;;;;;;;;;;5022123;28;20100;-50
2022/03/26 01:37:37;;;;;;;7.25;5.80;;;;;;;;;;5015290;28;20038;-63
2022/03/26 01:40:04;;;;;;;14.93;6.07;;;;;;;;;;5014600;28;20052;-63
2022/03/26 01:42:31;;;;;;;7.85;6.50;;;;;;;;;;5019292;28;20068;-63
2022/03/26 01:44:57;;;;;;;7.95;6.05;;;;;;;;;;5016026;28;20054;-63
2022/03/26 01:47:23;;;;;;;7.63;6.20;;;;;;;;;;5022108;28;20050;-62
2022/03/26 01:49:50;;;;;;;8.30;5.97;;;;;;;;;;5014512;28;20018;-63
2022/03/26 01:52:17;;;;;;;8.75;6.28;;;;;;;;;;5013179;28;20596;-63
2022/03/26 01:54:43;;;;;;;8.38;5.40;;;;;;;;;;5012142;28;20026;-62
2022/03/26 01:57:10;;;;;;;8.23;5.85;;;;;;;;;;5011614;28;20030;-63
2022/03/26 01:59:41;;;;;;;9.32;6.32;;;;;;;;;;5021224;28;20037;-63
2022/03/26 02:02:07;;;;;;;10.88;6.18;;;;;;;;;;5017399;28;20038;-63
2022/03/26 02:04:36;;;;;;;6.50;5.43;;;;;;;;;;5017862;28;20034;-63
2022/03/26 02:07:04;;;;;;;6.45;5.25;;;;;;;;;;5020225;28;20053;-63
2022/03/26 02:09:34;;;;;;;7.95;5.70;;;;;;;;;;5011953;28;20042;-63
2022/03/26 02:12:00;;;;;;;8.18;6.00;;;;;;;;;;5010486;28;20041;-63
2022/03/26 02:14:26;;;;;;;9.90;5.53;;;;;;;;;;5014897;28;20682;-63
2022/03/26 02:16:52;;;;;;;14.30;6.15;;;;;;;;;;5019989;28;20021;-63
2022/03/26 02:19:19;;;;;;;7.55;5.30;;;;;;;;;;5015912;28;20036;-63
2022/03/26 02:21:49;;;;;;;9.35;5.80;;;;;;;;;;5013130;28;20037;-63
2022/03/26 02:24:15;;;;;;;6.15;5.55;;;;;;;;;;5016058;28;20025;-63
2022/03/26 02:26:42;;;;;;;8.45;6.13;;;;;;;;;;5012712;28;20026;-63
2022/03/26 02:29:10;;;;;;;10.07;6.25;;;;;;;;;;5014649;28;20049;-63
2022/03/26 02:31:37;;;;;;;9.43;6.32;;;;;;;;;;5019953;28;20059;-63
2022/03/26 02:34:05;;;;;;;9.07;6.05;;;;;;;;;;5013841;28;20033;-62
2022/03/26 02:36:31;;;;;;;8.52;6.00;;;;;;;;;;5024745;28;20025;-63
2022/03/26 02:38:57;;;;;;;10.50;6.18;;;;;;;;;;5018157;28;20495;-63
2022/03/26 02:41:23;;;;;;;9.40;6.25;;;;;;;;;;5019833;28;20038;-62
2022/03/26 02:43:49;;;;;;;17.33;5.93;;;;;;;;;;5016068;28;20140;-63
2022/03/26 02:46:14;;;;;;;8.48;5.70;;;;;;;;;;5022401;28;20474;-63
2022/03/26 02:48:42;;;;;;;7.45;6.40;;;;;;;;;;5014800;28;20035;-63
2022/03/26 02:51:08;;;;;;;8.57;6.05;;;;;;;;;;5011064;28;20029;-63
2022/03/26 02:53:33;;;;;;;7.50;6.07;;;;;;;;;;5020478;28;20046;-63
2022/03/26 02:56:00;;;;;;;9.15;6.28;;;;;;;;;;5014014;28;20052;-63
2022/03/26 02:58:25;;;;;;;8.15;6.03;;;;;;;;;;5018056;28;20033;-63
2022/03/26 03:00:51;;;;;;;6.15;5.38;;;;;;;;;;5017930;28;20497;-63
2022/03/26 03:03:17;;;;;;;10.57;6.53;;;;;;;;;;5016077;28;20467;-63
2022/03/26 03:05:46;;;;;;;11.27;6.63;;;;;;;;;;5020430;28;20021;-63
2022/03/26 03:08:15;;;;;;;7.78;6.25;;;;;;;;;;5017271;28;20390;-63
2022/03/26 03:10:42;;;;;;;7.78;6.22;;;;;;;;;;5017013;28;20505;-59
2022/03/26 03:13:09;;;;;;;8.60;6.18;;;;;;;;;;5019740;28;20033;-63
2022/03/26 03:15:35;;;;;;;11.05;6.35;;;;;;;;;;5010673;28;20430;-63
2022/03/26 03:18:02;;;;;;;9.68;6.28;;;;;;;;;;5012970;28;20041;-63
2022/03/26 03:20:29;;;;;;;7.18;5.88;;;;;;;;;;5020387;28;20030;-63
2022/03/26 03:22:57;;;;;;;7.60;6.22;;;;;;;;;;5017635;28;20029;-63
2022/03/26 03:25:25;;;;;;;7.65;6.38;;;;;;;;;;5021062;28;20062;-63
2022/03/26 03:27:51;;;;;;;8.65;6.35;;;;;;;;;;5011780;28;20034;-63
2022/03/26 03:30:17;;;;;;;10.73;5.88;;;;;;;;;;5015876;28;20022;-63
2022/03/26 03:32:44;;;;;;;7.65;6.05;;;;;;;;;;5015261;28;20383;-63
2022/03/26 03:35:10;;;;;;;8.70;6.10;;;;;;;;;;5023711;28;20517;-63
2022/03/26 03:37:39;;;;;;;9.15;6.30;;;;;;;;;;5020694;28;20029;-63
2022/03/26 03:40:06;;;;;;;13.90;6.68;;;;;;;;;;5021638;28;20029;-63
2022/03/26 03:42:32;;;;;;;7.78;6.03;;;;;;;;;;5018910;28;20049;-63
2022/03/26 03:44:57;;;;;;;9.48;6.20;;;;;;;;;;5016911;28;20072;-63
2022/03/26 03:47:23;;;;;;;9.10;5.90;;;;;;;;;;5017879;28;20038;-63
2022/03/26 03:49:49;;;;;;;7.93;6.22;;;;;;;;;;5017818;28;20038;-63
2022/03/26 03:52:15;;;;;;;7.88;6.30;;;;;;;;;;5019352;28;20513;-63
2022/03/26 03:54:40;;;;;;;8.90;5.90;;;;;;;;;;5014798;28;20030;-63
2022/03/26 03:57:06;;;;;;;11.23;6.00;;;;;;;;;;5018432;28;20037;-63
2022/03/26 03:59:32;;;;;;;6.88;5.28;;;;;;;;;;5018915;28;20032;-63
2022/03/26 04:01:58;;;;;;;8.45;5.60;;;;;;;;;;5014963;28;20392;-63
2022/03/26 04:04:24;;;;;;;7.78;5.72;;;;;;;;;;5026404;28;20398;-63
2022/03/26 04:06:49;;;;;;;6.93;5.75;;;;;;;;;;5013449;28;20478;-63
2022/03/26 04:09:15;;;;;;;9.68;6.15;;;;;;;;;;5019588;28;20084;-64
2022/03/26 04:11:41;;;;;;;6.65;5.60;;;;;;;;;;5015530;28;20037;-63
2022/03/26 04:14:09;;;;;;;10.80;6.32;;;;;;;;;;5021092;28;20100;-63
2022/03/26 04:16:35;;;;;;;8.32;5.40;;;;;;;;;;5020171;28;20038;-63
2022/03/26 04:19:01;;;;;;;7.45;5.80;;;;;;;;;;5019334;28;20044;-63
2022/03/26 04:21:27;;;;;;;10.90;6.18;;;;;;;;;;5014946;28;20041;-63
2022/03/26 04:23:52;;;;;;;14.30;5.63;;;;;;;;;;5020339;28;20109;-63
2022/03/26 04:26:19;;;;;;;7.70;5.60;;;;;;;;;;5019207;28;20540;-63
2022/03/26 04:28:44;;;;;;;6.70;5.93;;;;;;;;;;5022014;28;20029;-62
2022/03/26 04:31:10;;;;;;;7.32;6.03;;;;;;;;;;5020305;28;20406;-63
2022/03/26 04:33:36;;;;;;;7.63;5.53;;;;;;;;;;5016493;28;20057;-63
2022/03/26 04:36:02;;;;;;;6.40;5.53;;;;;;;;;;5021660;28;20029;-62
2022/03/26 04:38:28;;;;;;;9.32;6.60;;;;;;;;;;5017676;28;20060;-63
2022/03/26 04:40:54;;;;;;;8.23;6.00;;;;;;;;;;5016975;28;20533;-62
2022/03/26 04:43:21;;;;;;;9.38;6.28;;;;;;;;;;5017488;28;20034;-63
2022/03/26 04:45:47;;;;;;;8.27;6.03;;;;;;;;;;5015134;28;20045;-63
2022/03/26 04:48:13;;;;;;;7.88;5.63;;;;;;;;;;5013802;28;20026;-63
2022/03/26 04:50:39;;;;;;;11.50;6.30;;;;;;;;;;5015413;28;20025;-63
2022/03/26 04:53:05;;;;;;;6.25;5.10;;;;;;;;;;5018977;28;20383;-63
2022/03/26 04:55:31;;;;;;;7.97;5.63;;;;;;;;;;5018922;28;20063;-62
2022/03/26 04:57:56;;;;;;;8.50;5.72;;;;;;;;;;5014485;28;20491;-63
2022/03/26 05:00:22;;;;;;;6.70;5.55;;;;;;;;;;5014626;28;20774;-63
2022/03/26 05:02:48;;;;;;;7.53;5.72;;;;;;;;;;5020926;28;20029;-63
2022/03/26 05:05:15;;;;;;;8.23;5.53;;;;;;;;;;5021832;28;20034;-63
2022/03/26 05:07:47;;;;;;;8.85;5.85;;;;;;;;;;5023832;28;20681;-63
2022/03/26 05:10:24;;;;;;;6.68;5.68;;;;;;;;;;5019589;28;20373;-63
2022/03/26 05:12:51;;;;;;;7.30;5.28;;;;;;;;;;5022500;28;20398;-63
2022/03/26 05:15:21;;;;;;;7.95;5.55;;;;;;;;;;5021655;28;20037;-63
2022/03/26 05:17:47;;;;;;;13.68;6.10;;;;;;;;;;5023932;28;20034;-63
2022/03/26 05:20:13;;;;;;;7.47;5.90;;;;;;;;;;5024252;28;20037;-63
2022/03/26 05:22:40;;;;;;;7.57;5.93;;;;;;;;;;5012110;28;20038;-63
2022/03/26 05:25:07;;;;;;;9.15;5.30;;;;;;;;;;5020637;28;20394;-63
2022/03/26 05:27:33;;;;;;;8.70;5.90;;;;;;;;;;5013296;28;20025;-63
2022/03/26 05:29:59;;;;;;;8.98;6.18;;;;;;;;;;5016789;28;20546;-62
2022/03/26 05:32:25;;;;;;;10.48;5.60;;;;;;;;;;5012606;28;20030;-63
2022/03/26 05:34:51;;;;;;;7.22;5.32;;;;;;;;;;5017780;28;20084;-63
2022/03/26 05:37:18;;;;;;;7.93;5.45;;;;;;;;;;5023001;28;20021;-63
2022/03/26 05:39:45;;;;;;;9.80;5.50;;;;;;;;;;5025134;28;20044;-63
2022/03/26 05:42:11;;;;;;;7.03;5.32;;;;;;;;;;5018648;28;20108;-63
2022/03/26 05:44:36;;;;;;;12.00;5.70;;;;;;;;;;5022345;28;20479;-63
2022/03/26 05:47:03;;;;;;;10.60;6.38;;;;;;;;;;5015774;28;20048;-63
2022/03/26 05:49:29;;;;;;;8.40;5.80;;;;;;;;;;5019369;28;20101;-63
2022/03/26 05:51:55;;;;;;;7.28;5.75;;;;;;;;;;5016260;28;20104;-63
2022/03/26 05:54:20;;;;;;;10.20;5.90;;;;;;;;;;5018465;28;20152;-63
2022/03/26 05:56:52;;;;;;;7.85;5.93;;;;;;;;;;5016177;28;20119;-63
2022/03/26 05:59:20;;;;;;;6.90;5.68;;;;;;;;;;5015722;28;20041;-63
2022/03/26 06:01:51;;;;;;;6.07;5.45;;;;;;;;;;5021647;28;20084;-63
2022/03/26 06:04:17;;;;;;;6.20;5.13;;;;;;;;;;5019830;28;20152;-63
2022/03/26 06:06:43;;;;;;;10.95;5.75;;;;;;;;;;5017434;28;20112;-62
2022/03/26 06:09:10;;;;;;;6.72;5.95;;;;;;;;;;5020989;28;20029;-63
2022/03/26 06:11:36;;;;;;;6.80;5.53;;;;;;;;;;5011125;28;20037;-63
2022/03/26 06:14:02;;;;;;;6.03;5.43;;;;;;;;;;5017116;28;20034;-63
2022/03/26 06:16:29;;;;;;;8.57;5.25;;;;;;;;;;5017929;28;21126;-63
2022/03/26 06:18:54;;;;;;;6.90;5.82;;;;;;;;;;5019912;28;20030;-63
2022/03/26 06:21:20;;;;;;;12.52;5.90;;;;;;;;;;5014393;28;20419;-63
2022/03/26 06:23:46;;;;;;;9.63;5.55;;;;;;;;;;5018654;28;20053;-64
2022/03/26 06:26:12;;;;;;;10.98;5.72;;;;;;;;;;5012413;28;20042;-63
2022/03/26 06:28:38;;;;;;;7.28;5.45;;;;;;;;;;5017761;28;20029;-63
2022/03/26 06:31:04;;;;;;;10.18;5.95;;;;;;;;;;5019969;28;20387;-63
2022/03/26 06:33:30;;;;;;;9.68;5.60;;;;;;;;;;5015126;28;20026;-63
2022/03/26 06:35:56;;;;;;;5.75;4.72;;;;;;;;;;5015694;28;20033;-63
2022/03/26 06:38:22;;;;;;;9.82;5.55;;;;;;;;;;5021391;28;20037;-63
2022/03/26 06:40:48;;;;;;;9.77;6.03;;;;;;;;;;5018042;28;20026;-64
2022/03/26 06:43:14;;;;;;;9.52;5.97;;;;;;;;;;5017679;28;20057;-64
2022/03/26 06:45:40;;;;;;;10.07;6.47;;;;;;;;;;5015920;28;20034;-63
2022/03/26 06:48:07;;;;;;;11.52;5.93;;;;;;;;;;5019652;28;20123;-64
2022/03/26 06:50:33;;;;;;;10.63;5.63;;;;;;;;;;5026360;28;20034;-63
2022/03/26 06:52:59;;;;;;;10.32;6.45;;;;;;;;;;5014263;28;20052;-64
2022/03/26 06:55:25;;;;;;;15.95;6.63;;;;;;;;;;5017136;28;20057;-63
2022/03/26 06:57:51;;;;;;;9.52;5.97;;;;;;;;;;5016555;28;20117;-64
2022/03/26 07:00:18;;;;;;;7.70;5.80;;;;;;;;;;5011494;28;20425;-64
2022/03/26 07:02:44;;;;;;;8.43;5.72;;;;;;;;;;5015068;28;20017;-63
2022/03/26 07:05:10;;;;;;;7.10;5.53;;;;;;;;;;5020660;28;20532;-64
2022/03/26 07:07:36;;;;;;;8.50;5.43;;;;;;;;;;5020169;28;20037;-64
2022/03/26 07:10:03;;;;;;;7.55;5.70;;;;;;;;;;5018585;28;20029;-64
2022/03/26 07:12:29;;;;;;;11.40;6.10;;;;;;;;;;5016309;28;20100;-64
2022/03/26 07:14:56;;;;;;;10.55;5.72;;;;;;;;;;5022335;28;20109;-64
2022/03/26 07:17:22;;;;;;;11.15;5.97;;;;;;;;;;5019418;28;20019;-63
2022/03/26 07:19:48;;;;;;;7.63;5.55;;;;;;;;;;5019229;28;20056;-64
2022/03/26 07:22:14;;;;;;;11.77;5.70;;;;;;;;;;5019238;28;20057;-64
2022/03/26 07:24:40;;;;;;;8.27;6.35;;;;;;;;;;5017620;28;20479;-64
2022/03/26 07:27:06;;;;;;;10.35;6.25;;;;;;;;;;5017824;28;20539;-64
2022/03/26 07:29:38;;;;;;;6.93;5.72;;;;;;;;;;5021301;28;20128;-64
2022/03/26 07:32:09;;;;;;;12.35;6.22;;;;;;;;;;5016905;28;20391;-63
2022/03/26 07:34:35;;;;;;;7.90;5.47;;;;;;;;;;5016823;28;20041;-64
2022/03/26 07:37:01;;;;;;;6.25;5.60;;;;;;;;;;5018809;28;20045;-64
2022/03/26 07:39:27;;;;;;;7.38;5.93;;;;;;;;;;5023817;28;20045;-63
2022/03/26 07:41:53;;;;;;;8.68;5.53;;;;;;;;;;5019348;28;20045;-64
2022/03/26 07:44:19;;;;;;;9.77;5.80;;;;;;;;;;5016933;28;20475;-64
2022/03/26 07:46:45;;;;;;;8.45;5.63;;;;;;;;;;5017659;28;20045;-64
2022/03/26 07:49:11;;;;;;;13.07;5.90;;;;;;;;;;5022819;28;20482;-64
2022/03/26 07:51:37;;;;;;;20.60;11.75;;;;;;;;;;5017906;28;20532;-64
2022/03/26 07:54:03;;;;;;;15.88;7.88;;;;;;;;;;5015468;28;20777;-63
2022/03/26 07:56:28;;;;;;;7.05;5.78;;;;;;;;;;5020160;28;20022;-64
2022/03/26 07:58:54;;;;;;;16.65;10.50;;;;;;;;;;5020945;28;20021;-64
2022/03/26 08:01:20;;;;;;;44.85;21.23;;;;;;;;;;5018051;28;20038;-64
2022/03/26 08:03:46;;;;;;;28.05;16.88;;;;;;;;;;5020905;28;20029;-64
2022/03/26 08:06:12;;;;;;;24.65;13.45;;;;;;;;;;5022556;28;20029;-64
2022/03/26 08:08:40;;;;;;;16.67;10.77;;;;;;;;;;5015557;28;20487;-64
2022/03/26 08:11:06;;;;;;;22.80;11.93;;;;;;;;;;5022056;28;20033;-64
2022/03/26 08:13:33;;;;;;;15.38;9.40;;;;;;;;;;5019695;28;20034;-64
2022/03/26 08:15:59;;;;;;;12.00;7.15;;;;;;;;;;5021726;28;20052;-64
2022/03/26 08:18:25;;;;;;;9.73;7.10;;;;;;;;;;5022362;28;20767;-64
2022/03/26 08:20:50;;;;;;;11.52;7.95;;;;;;;;;;5023325;28;20025;-65
2022/03/26 08:23:16;;;;;;;12.32;8.80;;;;;;;;;;5013853;28;20033;-64
2022/03/26 08:28:26;;;;;;;12.43;7.22;;;;;;;;;;5022483;28;20080;-64
2022/03/26 08:30:52;;;;;;;11.27;6.20;;;;;;;;;;5018282;28;20025;-64
2022/03/26 08:33:17;;;;;;;14.80;6.85;;;;;;;;;;5017268;28;20038;-64
2022/03/26 08:35:43;;;;;;;6.68;5.65;;;;;;;;;;5019808;28;20064;-64
2022/03/26 08:38:09;;;;;;;11.02;6.43;;;;;;;;;;5018993;28;20060;-64
2022/03/26 08:40:35;;;;;;;8.88;6.70;;;;;;;;;;5020879;28;20033;-64
2022/03/26 08:43:01;;;;;;;9.45;5.78;;;;;;;;;;5017576;28;20394;-64
2022/03/26 08:45:29;;;;;;;12.50;6.03;;;;;;;;;;5018123;28;20029;-64
2022/03/26 08:47:55;;;;;;;13.45;8.88;;;;;;;;;;5018663;28;20028;-64
2022/03/26 08:50:22;;;;;;;12.73;7.10;;;;;;;;;;5023003;28;20382;-64
2022/03/26 08:52:49;;;;;;;10.57;6.30;;;;;;;;;;5024883;28;20049;-64
2022/03/26 08:55:16;;;;;;;6.95;6.13;;;;;;;;;;5015877;28;20482;-64
2022/03/26 08:57:43;;;;;;;9.75;6.03;;;;;;;;;;5018353;28;20040;-64
2022/03/26 09:00:10;;;;;;;8.93;5.38;;;;;;;;;;5015470;28;20032;-64
2022/03/26 09:02:38;;;;;;;9.70;5.50;;;;;;;;;;5014357;28;20546;-64
2022/03/26 09:05:06;;;;;;;12.25;6.38;;;;;;;;;;5014614;28;20033;-64
2022/03/26 09:07:35;;;;;;;14.32;6.47;;;;;;;;;;5019321;28;20533;-64
2022/03/26 09:10:02;;;;;;;18.40;5.90;;;;;;;;;;5017365;28;20422;-64
2022/03/26 09:12:29;;;;;;;15.85;5.75;;;;;;;;;;5020541;28;20033;-65
2022/03/26 09:14:54;;;;;;;11.52;5.95;;;;;;;;;;5012770;28;20129;-64
2022/03/26 09:17:20;;;;;;;8.73;5.40;;;;;;;;;;5019372;28;20025;-64
2022/03/26 09:19:46;;;;;;;9.52;5.85;;;;;;;;;;5017508;28;20037;-64
2022/03/26 09:22:11;;;;;;;13.30;5.90;;;;;;;;;;5013464;28;20029;-64
2022/03/26 09:24:37;;;;;;;13.45;5.95;;;;;;;;;;5020647;28;20025;-64
2022/03/26 09:27:03;;;;;;;7.03;6.10;;;;;;;;;;5011080;28;21802;-64
2022/03/26 09:29:29;;;;;;;9.40;5.97;;;;;;;;;;5013070;28;20091;-64
2022/03/26 09:31:55;;;;;;;14.50;5.97;;;;;;;;;;5023720;28;20029;-64
2022/03/26 09:34:20;;;;;;;9.35;6.10;;;;;;;;;;5016051;28;20100;-64
2022/03/26 09:36:47;;;;;;;9.52;5.80;;;;;;;;;;5020257;28;20029;-64
2022/03/26 09:39:12;;;;;;;16.35;6.88;;;;;;;;;;5014315;28;20065;-64
2022/03/26 09:41:39;;;;;;;8.85;6.25;;;;;;;;;;5021551;28;20030;-64
2022/03/26 09:44:06;;;;;;;8.93;6.10;;;;;;;;;;5017836;28;20478;-64
2022/03/26 09:46:35;;;;;;;11.68;5.82;;;;;;;;;;5012357;28;20056;-64
2022/03/26 09:49:02;;;;;;;12.57;6.05;;;;;;;;;;5014724;28;20034;-64
2022/03/26 09:51:28;;;;;;;12.02;6.25;;;;;;;;;;5017713;28;20407;-65
2022/03/26 09:53:54;;;;;;;13.30;6.55;;;;;;;;;;5021130;28;20052;-64
2022/03/26 09:56:23;;;;;;;12.80;5.45;;;;;;;;;;5012962;28;20041;-64
2022/03/26 09:58:52;;;;;;;17.33;6.22;;;;;;;;;;5017122;28;20056;-64
2022/03/26 10:01:20;;;;;;;9.60;5.93;;;;;;;;;;5018313;28;20029;-64
2022/03/26 10:04:11;;;;;;;10.90;6.03;;;;;;;;;;5015277;28;20140;-64
2022/03/26 10:06:49;;;;;;;11.95;6.18;;;;;;;;;;5015824;28;20099;-64
2022/03/26 10:09:34;;;;;;;13.02;6.57;;;;;;;;;;5018299;28;20116;-65
2022/03/26 10:12:05;;;;;;;16.77;6.90;;;;;;;;;;5017948;28;20037;-64
2022/03/26 10:14:43;;;;;;;14.00;6.57;;;;;;;;;;5018649;28;20109;-64
2022/03/26 10:17:12;;;;;;;12.20;6.78;;;;;;;;;;5018238;28;20386;-64
2022/03/26 10:19:43;;;;;;;13.93;6.55;;;;;;;;;;5012852;28;20113;-64
2022/03/26 10:22:21;;;;;;;10.15;6.95;;;;;;;;;;5018216;28;20075;-63
2022/03/26 10:24:47;;;;;;;10.77;6.05;;;;;;;;;;5014272;28;20108;-64
2022/03/26 10:27:13;;;;;;;12.23;6.53;;;;;;;;;;5014653;28;20547;-64
2022/03/26 10:29:49;;;;;;;13.50;6.47;;;;;;;;;;5013199;28;20030;-64
2022/03/26 10:32:40;;;;;;;15.52;6.45;;;;;;;;;;5021582;28;20080;-64
2022/03/26 10:35:06;;;;;;;10.82;6.35;;;;;;;;;;5015629;28;20036;-64
2022/03/26 10:37:48;;;;;;;12.10;6.07;;;;;;;;;;5010775;28;20386;-64
2022/03/26 10:40:24;;;;;;;10.40;6.18;;;;;;;;;;5012750;28;20042;-63
2022/03/26 10:42:58;;;;;;;9.15;6.25;;;;;;;;;;5014584;28;20136;-64
2022/03/26 10:45:24;;;;;;;11.10;6.28;;;;;;;;;;5018051;28;20122;-63
2022/03/26 10:47:53;;;;;;;8.88;6.15;;;;;;;;;;5022047;28;20041;-64
2022/03/26 10:50:19;;;;;;;15.18;6.50;;;;;;;;;;5019222;28;20038;-63
2022/03/26 10:52:45;;;;;;;16.85;6.43;;;;;;;;;;5015693;28;20976;-64
2022/03/26 10:55:16;;;;;;;109.07;16.85;;;;;;;;;;5017518;28;20032;-64
2022/03/26 10:57:46;;;;;;;35.72;9.55;;;;;;;;;;5019292;28;20061;-63
2022/03/26 11:00:17;;;;;;;17.17;6.78;;;;;;;;;;5012662;28;20045;-63
2022/03/26 11:02:44;;;;;;;14.48;6.30;;;;;;;;;;5016480;28;20475;-62
2022/03/26 11:05:13;;;;;;;15.32;6.13;;;;;;;;;;5018658;28;20071;-63
2022/03/26 11:07:42;;;;;;;8.45;6.25;;;;;;;;;;5015061;28;20034;-63
2022/03/26 11:10:12;;;;;;;10.55;5.78;;;;;;;;;;5017025;28;20033;-62
2022/03/26 11:12:46;;;;;;;17.40;6.30;;;;;;;;;;5016442;28;20421;-63
2022/03/26 11:15:19;;;;;;;11.75;6.28;;;;;;;;;;5015219;28;20034;-63
2022/03/26 11:18:06;;;;;;;11.48;6.82;;;;;;;;;;5015763;28;20458;-63
2022/03/26 11:20:44;;;;;;;8.88;5.97;;;;;;;;;;5016385;28;20029;-60
2022/03/26 11:23:27;;;;;;;12.32;5.43;;;;;;;;;;5016179;28;20034;-62
2022/03/26 11:26:11;;;;;;;11.45;5.82;;;;;;;;;;5014525;28;20030;-62
2022/03/26 11:28:59;;;;;;;9.23;5.60;;;;;;;;;;5011080;28;20061;-62
2022/03/26 11:31:38;;;;;;;9.02;5.88;;;;;;;;;;5015736;28;20034;-62
2022/03/26 11:34:08;;;;;;;10.48;6.10;;;;;;;;;;5011900;28;20044;-61
2022/03/26 11:36:34;;;;;;;14.32;6.63;;;;;;;;;;5011989;28;20025;-61
2022/03/26 11:39:15;;;;;;;10.60;7.05;;;;;;;;;;5018157;28;20140;-62
2022/03/26 11:41:41;;;;;;;9.07;5.68;;;;;;;;;;5012880;28;20030;-62
2022/03/26 11:44:08;;;;;;;14.27;6.82;;;;;;;;;;5017686;28;20125;-61
2022/03/26 11:52:28;;;;;;;9.95;5.72;;;;;;;;;;5016378;28;20053;-62
2022/03/26 11:54:58;;;;;;;9.93;5.60;;;;;;;;;;5019883;28;20026;-61
2022/03/26 11:57:25;;;;;;;10.65;6.30;;;;;;;;;;5017571;28;20041;-61
2022/03/26 11:59:52;;;;;;;7.78;5.50;;;;;;;;;;5018445;28;20037;-62
2022/03/26 12:02:26;;;;;;;10.43;6.13;;;;;;;;;;5020269;28;20041;-62
2022/03/26 12:06:35;;;;;;;10.27;6.55;;;;;;;;;;5017281;28;20450;-60
2022/03/26 12:07:46;;;;;;;10.90;6.00;;;;;;;;;;5023545;28;20043;-61
2022/03/26 12:10:12;;;;;;;11.02;6.50;;;;;;;;;;5021487;28;20390;-62
2022/03/26 12:12:48;;;;;;;14.25;6.43;;;;;;;;;;5022155;28;20034;-62
2022/03/26 12:15:14;;;;;;;12.77;6.40;;;;;;;;;;5017603;28;20052;-61
2022/03/26 12:18:22;;;;;;;16.23;5.60;;;;;;;;;;5021470;28;20068;-62
2022/03/26 12:20:48;;;;;;;10.77;5.88;;;;;;;;;;5039563;28;20067;-62
2022/03/26 12:23:28;;;;;;;8.48;5.70;;;;;;;;;;5046973;28;20036;-63
2022/03/26 12:26:00;;;;;;;15.20;6.00;;;;;;;;;;5039125;28;20424;-63
2022/03/26 12:28:25;;;;;;;12.23;5.90;;;;;;;;;;5038810;28;20064;-64
2022/03/26 12:31:04;;;;;;;10.18;4.97;;;;;;;;;;5044050;28;20033;-63
2022/03/26 12:33:39;;;;;;;14.57;5.40;;;;;;;;;;5040723;28;20043;-64
2022/03/26 12:36:05;;;;;;;21.52;5.47;;;;;;;;;;5038535;28;20029;-63
2022/03/26 12:38:31;;;;;;;8.82;5.43;;;;;;;;;;5047702;28;20072;-63
2022/03/26 12:41:05;;;;;;;6.88;5.25;;;;;;;;;;5040416;28;20057;-63
2022/03/26 12:43:30;;;;;;;9.30;5.22;;;;;;;;;;5045291;28;20066;-63
2022/03/26 12:45:58;;;;;;;8.93;5.50;;;;;;;;;;5046342;28;20483;-63
2022/03/26 12:48:28;;;;;;;17.58;5.43;;;;;;;;;;5044328;28;20037;-62
2022/03/26 12:50:58;;;;;;;8.48;6.00;;;;;;;;;;5037027;28;20420;-64
2022/03/26 12:53:24;;;;;;;8.90;6.00;;;;;;;;;;5019726;28;20060;-63
2022/03/26 12:55:56;;;;;;;16.25;5.35;;;;;;;;;;5021816;28;20456;-62
2022/03/26 13:01:11;;;;;;;12.90;5.57;;;;;;;;;;5018703;28;20025;-63
2022/03/26 13:03:37;;;;;;;5.25;4.75;;;;;;;;;;5012885;28;20053;-62
2022/03/26 13:06:08;;;;;;;10.38;5.82;;;;;;;;;;5016798;28;20509;-63
2022/03/26 13:08:34;;;;;;;9.23;4.87;;;;;;;;;;5022744;28;20028;-62
2022/03/26 13:11:07;;;;;;;5.65;4.95;;;;;;;;;;5016504;28;20366;-63
2022/03/26 13:13:44;;;;;;;10.32;5.30;;;;;;;;;;5016619;28;20026;-62
2022/03/26 13:16:13;;;;;;;30.38;5.57;;;;;;;;;;5022976;28;20073;-62
2022/03/26 13:18:41;;;;;;;8.20;5.40;;;;;;;;;;5017117;28;20033;-62
2022/03/26 13:21:07;;;;;;;12.07;5.68;;;;;;;;;;5014271;28;20662;-62
2022/03/26 13:23:33;;;;;;;18.23;5.70;;;;;;;;;;5018699;28;20033;-63
2022/03/26 13:26:03;;;;;;;8.73;4.47;;;;;;;;;;5021661;28;20379;-62
2022/03/26 13:28:33;;;;;;;10.70;5.30;;;;;;;;;;5016955;28;20057;-63
2022/03/26 13:30:59;;;;;;;10.93;5.38;;;;;;;;;;5020193;28;20045;-64
2022/03/26 13:33:30;;;;;;;7.30;5.15;;;;;;;;;;5019537;28;20029;-63
2022/03/26 13:36:01;;;;;;;9.25;5.25;;;;;;;;;;5016894;28;20053;-62
2022/03/26 13:38:28;;;;;;;8.10;5.70;;;;;;;;;;5016689;28;20390;-63
2022/03/26 13:40:54;;;;;;;11.00;6.15;;;;;;;;;;5021078;28;20060;-63
2022/03/26 13:43:20;;;;;;;14.88;5.63;;;;;;;;;;5020810;28;20061;-62
2022/03/26 13:45:46;;;;;;;12.95;5.75;;;;;;;;;;5015581;28;20025;-62
2022/03/26 13:48:12;;;;;;;12.05;5.43;;;;;;;;;;5012364;28;20469;-63
2022/03/26 13:50:41;;;;;;;15.23;5.55;;;;;;;;;;5019721;28;20061;-62
2022/03/26 13:53:18;;;;;;;12.27;5.50;;;;;;;;;;5016754;28;20049;-63
2022/03/26 13:55:49;;;;;;;12.52;6.30;;;;;;;;;;5014498;28;20439;-63
2022/03/26 13:58:22;;;;;;;11.30;5.68;;;;;;;;;;5018144;28;20083;-63
2022/03/26 14:00:53;;;;;;;9.50;5.72;;;;;;;;;;5017843;28;20112;-63
2022/03/26 14:03:23;;;;;;;15.15;5.75;;;;;;;;;;5015027;28;20025;-63
2022/03/26 14:05:49;;;;;;;8.65;5.57;;;;;;;;;;5015111;28;20038;-63
2022/03/26 14:08:14;;;;;;;8.35;5.20;;;;;;;;;;5016326;28;20036;-63
2022/03/26 14:10:45;;;;;;;7.47;5.72;;;;;;;;;;5019676;28;20030;-63
2022/03/26 14:13:13;;;;;;;13.02;5.30;;;;;;;;;;5019211;28;20083;-63
2022/03/26 14:15:39;;;;;;;14.25;6.00;;;;;;;;;;5012509;28;20474;-63
2022/03/26 14:18:07;;;;;;;10.57;5.10;;;;;;;;;;5013421;28;20040;-63
2022/03/26 14:20:34;;;;;;;8.05;5.00;;;;;;;;;;5019926;28;20040;-63
2022/03/26 14:23:01;;;;;;;10.82;4.68;;;;;;;;;;5011596;28;20119;-63
2022/03/26 14:25:30;;;;;;;6.10;4.72;;;;;;;;;;5018290;28;20130;-63
2022/03/26 14:27:56;;;;;;;9.25;4.70;;;;;;;;;;5016953;28;20025;-63
2022/03/26 14:30:23;;;;;;;7.45;4.78;;;;;;;;;;5015903;28;20388;-63
2022/03/26 14:32:49;;;;;;;8.82;4.45;;;;;;;;;;5013124;28;20029;-63
2022/03/26 14:35:14;;;;;;;6.53;3.90;;;;;;;;;;5018927;28;20368;-64
2022/03/26 14:37:40;;;;;;;10.93;5.10;;;;;;;;;;5013725;28;20088;-64
2022/03/26 14:40:07;;;;;;;9.82;4.75;;;;;;;;;;5012873;28;23159;-63
2022/03/26 14:42:33;;;;;;;8.90;5.10;;;;;;;;;;5016079;28;20052;-63
2022/03/26 14:44:58;;;;;;;5.10;4.60;;;;;;;;;;5017642;28;20034;-64
2022/03/26 14:47:24;;;;;;;5.72;4.93;;;;;;;;;;5015024;28;20030;-64
2022/03/26 14:49:50;;;;;;;5.53;4.82;;;;;;;;;;5019282;28;20029;-63